sensor_id;sensor_type;location;lat;lon;timestamp;P1;durP1;ratioP1;P2;durP2;ratioP2
65189;SDS011;51777;53.570;9.984;2022-09-06T00:01:21;1.67;;;1.00;;
65189;SDS011;51777;53.570;9.984;2022-09-06T00:03:47;4.03;;;1.20;;
65189;SDS011;51777;53.570;9.984;2022-09-06T00:06:14;2.22;;;1.20;;
65189;SDS011;51777;53.570;9.984;2022-09-06T00:08:44;3.20;;;1.15;;
65189;SDS011;51777;53.570;9.984;2022-09-06T00:11:10;4.70;;;1.40;;
65189;SDS011;51777;53.570;9.984;2022-09-06T00:13:37;4.95;;;1.45;;
65189;SDS011;51777;53.570;9.984;2022-09-06T00:18:33;3.13;;;1.23;;
65189;SDS011;51777;53.570;9.984;2022-09-06T00:20:58;3.13;;;1.30;;
65189;SDS011;51777;53.570;9.984;2022-09-06T00:23:24;4.78;;;1.40;;
65189;SDS011;51777;53.570;9.984;2022-09-06T00:25:49;4.20;;;1.30;;
65189;SDS011;51777;53.570;9.984;2022-09-06T00:28:15;3.50;;;1.20;;
65189;SDS011;51777;53.570;9.984;2022-09-06T00:30:40;1.80;;;1.20;;
65189;SDS011;51777;53.570;9.984;2022-09-06T00:33:06;2.28;;;1.23;;
65189;SDS011;51777;53.570;9.984;2022-09-06T00:35:31;2.60;;;1.10;;
65189;SDS011;51777;53.570;9.984;2022-09-06T00:37:57;1.85;;;1.27;;
65189;SDS011;51777;53.570;9.984;2022-09-06T00:40:24;4.38;;;1.40;;
65189;SDS011;51777;53.570;9.984;2022-09-06T00:42:51;2.53;;;1.13;;
65189;SDS011;51777;53.570;9.984;2022-09-06T00:45:16;1.90;;;1.30;;
65189;SDS011;51777;53.570;9.984;2022-09-06T00:47:42;5.18;;;1.20;;
65189;SDS011;51777;53.570;9.984;2022-09-06T00:50:09;1.70;;;1.38;;
65189;SDS011;51777;53.570;9.984;2022-09-06T00:52:38;6.57;;;1.45;;
65189;SDS011;51777;53.570;9.984;2022-09-06T00:55:05;2.97;;;1.30;;
65189;SDS011;51777;53.570;9.984;2022-09-06T00:57:31;6.60;;;1.45;;
65189;SDS011;51777;53.570;9.984;2022-09-06T00:59:57;4.68;;;1.55;;
65189;SDS011;51777;53.570;9.984;2022-09-06T01:02:24;1.63;;;1.23;;
65189;SDS011;51777;53.570;9.984;2022-09-06T01:04:49;2.53;;;1.20;;
65189;SDS011;51777;53.570;9.984;2022-09-06T01:12:54;1.60;;;1.30;;
65189;SDS011;51777;53.570;9.984;2022-09-06T01:29:29;3.42;;;1.45;;
65189;SDS011;51777;53.570;9.984;2022-09-06T01:32:05;4.10;;;1.35;;
65189;SDS011;51777;53.570;9.984;2022-09-06T01:34:41;6.47;;;1.50;;
65189;SDS011;51777;53.570;9.984;2022-09-06T01:37:12;4.05;;;1.23;;
65189;SDS011;51777;53.570;9.984;2022-09-06T01:39:40;3.05;;;1.48;;
65189;SDS011;51777;53.570;9.984;2022-09-06T01:42:13;4.40;;;1.27;;
65189;SDS011;51777;53.570;9.984;2022-09-06T01:44:44;4.57;;;1.40;;
65189;SDS011;51777;53.570;9.984;2022-09-06T01:53:27;2.00;;;1.50;;
65189;SDS011;51777;53.570;9.984;2022-09-06T01:58:59;2.85;;;1.30;;
65189;SDS011;51777;53.570;9.984;2022-09-06T02:01:32;1.75;;;1.15;;
65189;SDS011;51777;53.570;9.984;2022-09-06T02:06:49;2.38;;;1.50;;
65189;SDS011;51777;53.570;9.984;2022-09-06T02:09:22;1.98;;;1.20;;
65189;SDS011;51777;53.570;9.984;2022-09-06T02:11:52;5.30;;;1.25;;
65189;SDS011;51777;53.570;9.984;2022-09-06T02:14:26;3.28;;;1.42;;
65189;SDS011;51777;53.570;9.984;2022-09-06T02:16:58;2.78;;;1.23;;
65189;SDS011;51777;53.570;9.984;2022-09-06T02:21:59;4.85;;;1.52;;
65189;SDS011;51777;53.570;9.984;2022-09-06T02:24:29;2.42;;;1.50;;
65189;SDS011;51777;53.570;9.984;2022-09-06T02:26:57;1.80;;;1.40;;
65189;SDS011;51777;53.570;9.984;2022-09-06T02:29:22;2.40;;;1.40;;
65189;SDS011;51777;53.570;9.984;2022-09-06T02:34:37;4.88;;;1.60;;
65189;SDS011;51777;53.570;9.984;2022-09-06T02:37:04;6.38;;;1.40;;
65189;SDS011;51777;53.570;9.984;2022-09-06T02:39:30;2.42;;;1.50;;
65189;SDS011;51777;53.570;9.984;2022-09-06T02:41:55;3.85;;;1.25;;
65189;SDS011;51777;53.570;9.984;2022-09-06T02:44:22;1.63;;;1.30;;
65189;SDS011;51777;53.570;9.984;2022-09-06T02:46:47;3.78;;;1.50;;
65189;SDS011;51777;53.570;9.984;2022-09-06T02:49:13;3.30;;;1.55;;
65189;SDS011;51777;53.570;9.984;2022-09-06T02:51:39;4.30;;;1.50;;
65189;SDS011;51777;53.570;9.984;2022-09-06T02:54:05;4.47;;;1.42;;
65189;SDS011;51777;53.570;9.984;2022-09-06T02:56:31;2.85;;;1.30;;
65189;SDS011;51777;53.570;9.984;2022-09-06T02:58:58;2.35;;;1.30;;
65189;SDS011;51777;53.570;9.984;2022-09-06T03:01:28;4.38;;;1.50;;
65189;SDS011;51777;53.570;9.984;2022-09-06T03:03:53;4.85;;;1.50;;
65189;SDS011;51777;53.570;9.984;2022-09-06T03:06:19;5.22;;;1.48;;
65189;SDS011;51777;53.570;9.984;2022-09-06T03:08:45;3.67;;;1.40;;
65189;SDS011;51777;53.570;9.984;2022-09-06T03:11:10;5.07;;;1.42;;
65189;SDS011;51777;53.570;9.984;2022-09-06T03:13:36;5.50;;;1.65;;
65189;SDS011;51777;53.570;9.984;2022-09-06T03:16:01;7.60;;;1.40;;
65189;SDS011;51777;53.570;9.984;2022-09-06T03:18:28;9.23;;;1.58;;
65189;SDS011;51777;53.570;9.984;2022-09-06T03:20:55;3.00;;;1.30;;
65189;SDS011;51777;53.570;9.984;2022-09-06T03:23:21;2.47;;;1.40;;
65189;SDS011;51777;53.570;9.984;2022-09-06T03:25:49;4.97;;;1.67;;
65189;SDS011;51777;53.570;9.984;2022-09-06T03:28:15;4.72;;;1.65;;
65189;SDS011;51777;53.570;9.984;2022-09-06T03:30:43;6.00;;;1.58;;
65189;SDS011;51777;53.570;9.984;2022-09-06T03:33:10;5.32;;;1.30;;
65189;SDS011;51777;53.570;9.984;2022-09-06T03:35:35;3.78;;;1.50;;
65189;SDS011;51777;53.570;9.984;2022-09-06T03:38:00;3.30;;;1.27;;
65189;SDS011;51777;53.570;9.984;2022-09-06T03:40:26;5.55;;;1.42;;
65189;SDS011;51777;53.570;9.984;2022-09-06T03:42:52;5.68;;;1.40;;
65189;SDS011;51777;53.570;9.984;2022-09-06T03:45:17;7.82;;;1.40;;
65189;SDS011;51777;53.570;9.984;2022-09-06T03:47:42;8.27;;;1.50;;
65189;SDS011;51777;53.570;9.984;2022-09-06T03:50:08;8.10;;;1.77;;
65189;SDS011;51777;53.570;9.984;2022-09-06T03:52:34;3.15;;;1.38;;
65189;SDS011;51777;53.570;9.984;2022-09-06T03:54:59;12.73;;;1.75;;
65189;SDS011;51777;53.570;9.984;2022-09-06T03:57:24;3.97;;;1.45;;
65189;SDS011;51777;53.570;9.984;2022-09-06T03:59:50;2.13;;;1.30;;
65189;SDS011;51777;53.570;9.984;2022-09-06T04:02:16;4.30;;;1.27;;
65189;SDS011;51777;53.570;9.984;2022-09-06T04:04:41;2.35;;;1.23;;
65189;SDS011;51777;53.570;9.984;2022-09-06T04:07:07;9.38;;;1.80;;
65189;SDS011;51777;53.570;9.984;2022-09-06T04:09:32;3.67;;;1.60;;
65189;SDS011;51777;53.570;9.984;2022-09-06T04:11:58;4.40;;;1.40;;
65189;SDS011;51777;53.570;9.984;2022-09-06T04:14:24;5.70;;;1.50;;
65189;SDS011;51777;53.570;9.984;2022-09-06T04:16:49;4.82;;;1.60;;
65189;SDS011;51777;53.570;9.984;2022-09-06T04:19:15;4.43;;;1.55;;
65189;SDS011;51777;53.570;9.984;2022-09-06T04:21:41;1.70;;;1.35;;
65189;SDS011;51777;53.570;9.984;2022-09-06T04:24:06;6.38;;;1.50;;
65189;SDS011;51777;53.570;9.984;2022-09-06T04:26:32;2.45;;;1.42;;
65189;SDS011;51777;53.570;9.984;2022-09-06T04:28:58;2.65;;;1.50;;
65189;SDS011;51777;53.570;9.984;2022-09-06T04:31:24;2.15;;;1.20;;
65189;SDS011;51777;53.570;9.984;2022-09-06T04:33:50;4.57;;;1.30;;
65189;SDS011;51777;53.570;9.984;2022-09-06T04:36:15;1.65;;;1.30;;
65189;SDS011;51777;53.570;9.984;2022-09-06T04:38:41;6.00;;;1.38;;
65189;SDS011;51777;53.570;9.984;2022-09-06T04:41:09;5.70;;;1.60;;
65189;SDS011;51777;53.570;9.984;2022-09-06T04:43:37;3.85;;;1.30;;
65189;SDS011;51777;53.570;9.984;2022-09-06T04:46:08;5.50;;;1.50;;
65189;SDS011;51777;53.570;9.984;2022-09-06T04:48:44;7.20;;;1.50;;
65189;SDS011;51777;53.570;9.984;2022-09-06T04:51:10;2.13;;;1.30;;
65189;SDS011;51777;53.570;9.984;2022-09-06T04:53:36;3.63;;;1.05;;
65189;SDS011;51777;53.570;9.984;2022-09-06T04:56:01;2.13;;;1.40;;
65189;SDS011;51777;53.570;9.984;2022-09-06T04:58:35;2.85;;;1.20;;
65189;SDS011;51777;53.570;9.984;2022-09-06T05:01:01;2.40;;;1.30;;
65189;SDS011;51777;53.570;9.984;2022-09-06T05:03:26;3.55;;;1.70;;
65189;SDS011;51777;53.570;9.984;2022-09-06T05:05:52;4.93;;;1.25;;
65189;SDS011;51777;53.570;9.984;2022-09-06T05:08:27;3.97;;;1.20;;
65189;SDS011;51777;53.570;9.984;2022-09-06T05:10:52;5.75;;;1.30;;
65189;SDS011;51777;53.570;9.984;2022-09-06T05:13:19;6.00;;;1.10;;
65189;SDS011;51777;53.570;9.984;2022-09-06T05:15:45;4.97;;;1.20;;
65189;SDS011;51777;53.570;9.984;2022-09-06T05:18:10;4.57;;;1.38;;
65189;SDS011;51777;53.570;9.984;2022-09-06T05:20:35;7.47;;;1.30;;
65189;SDS011;51777;53.570;9.984;2022-09-06T05:23:01;5.28;;;1.15;;
65189;SDS011;51777;53.570;9.984;2022-09-06T05:25:26;10.20;;;1.40;;
65189;SDS011;51777;53.570;9.984;2022-09-06T05:27:52;6.47;;;1.40;;
65189;SDS011;51777;53.570;9.984;2022-09-06T05:30:17;6.78;;;1.23;;
65189;SDS011;51777;53.570;9.984;2022-09-06T05:32:43;5.30;;;1.30;;
65189;SDS011;51777;53.570;9.984;2022-09-06T05:35:09;4.25;;;1.40;;
65189;SDS011;51777;53.570;9.984;2022-09-06T05:37:34;5.35;;;1.23;;
65189;SDS011;51777;53.570;9.984;2022-09-06T05:39:59;7.55;;;1.20;;
65189;SDS011;51777;53.570;9.984;2022-09-06T05:42:25;2.40;;;1.40;;
65189;SDS011;51777;53.570;9.984;2022-09-06T05:44:51;7.43;;;1.40;;
65189;SDS011;51777;53.570;9.984;2022-09-06T05:47:16;7.05;;;1.17;;
65189;SDS011;51777;53.570;9.984;2022-09-06T05:49:42;6.53;;;1.30;;
65189;SDS011;51777;53.570;9.984;2022-09-06T05:52:07;4.85;;;1.60;;
65189;SDS011;51777;53.570;9.984;2022-09-06T05:54:33;4.05;;;1.15;;
65189;SDS011;51777;53.570;9.984;2022-09-06T05:56:58;2.88;;;1.15;;
65189;SDS011;51777;53.570;9.984;2022-09-06T05:59:24;8.65;;;1.30;;
65189;SDS011;51777;53.570;9.984;2022-09-06T06:01:52;8.20;;;1.20;;
65189;SDS011;51777;53.570;9.984;2022-09-06T06:04:18;3.00;;;1.33;;
65189;SDS011;51777;53.570;9.984;2022-09-06T06:06:44;5.13;;;1.58;;
65189;SDS011;51777;53.570;9.984;2022-09-06T06:09:11;4.53;;;1.15;;
65189;SDS011;51777;53.570;9.984;2022-09-06T06:11:37;8.25;;;1.30;;
65189;SDS011;51777;53.570;9.984;2022-09-06T06:14:03;4.78;;;0.93;;
65189;SDS011;51777;53.570;9.984;2022-09-06T06:16:29;7.78;;;1.20;;
65189;SDS011;51777;53.570;9.984;2022-09-06T06:18:54;4.90;;;1.20;;
65189;SDS011;51777;53.570;9.984;2022-09-06T06:21:21;3.38;;;1.10;;
65189;SDS011;51777;53.570;9.984;2022-09-06T06:23:49;8.70;;;1.38;;
65189;SDS011;51777;53.570;9.984;2022-09-06T06:26:22;7.13;;;1.10;;
65189;SDS011;51777;53.570;9.984;2022-09-06T06:28:48;4.68;;;1.30;;
65189;SDS011;51777;53.570;9.984;2022-09-06T06:31:14;5.22;;;1.13;;
65189;SDS011;51777;53.570;9.984;2022-09-06T06:33:40;8.88;;;1.33;;
65189;SDS011;51777;53.570;9.984;2022-09-06T06:36:07;8.60;;;1.48;;
65189;SDS011;51777;53.570;9.984;2022-09-06T06:38:47;5.57;;;0.85;;
65189;SDS011;51777;53.570;9.984;2022-09-06T06:41:15;5.10;;;1.25;;
65189;SDS011;51777;53.570;9.984;2022-09-06T06:43:42;10.95;;;1.20;;
65189;SDS011;51777;53.570;9.984;2022-09-06T06:46:09;2.33;;;1.05;;
65189;SDS011;51777;53.570;9.984;2022-09-06T06:48:39;7.85;;;1.20;;
65189;SDS011;51777;53.570;9.984;2022-09-06T06:51:05;2.83;;;1.10;;
65189;SDS011;51777;53.570;9.984;2022-09-06T06:53:34;3.47;;;1.05;;
65189;SDS011;51777;53.570;9.984;2022-09-06T06:55:59;8.55;;;0.85;;
65189;SDS011;51777;53.570;9.984;2022-09-06T06:58:25;5.55;;;1.20;;
65189;SDS011;51777;53.570;9.984;2022-09-06T07:00:51;4.70;;;1.08;;
65189;SDS011;51777;53.570;9.984;2022-09-06T07:03:16;8.20;;;1.20;;
65189;SDS011;51777;53.570;9.984;2022-09-06T07:05:42;3.88;;;1.15;;
65189;SDS011;51777;53.570;9.984;2022-09-06T07:08:09;10.90;;;1.50;;
65189;SDS011;51777;53.570;9.984;2022-09-06T07:10:34;7.72;;;2.22;;
65189;SDS011;51777;53.570;9.984;2022-09-06T07:13:00;11.85;;;1.33;;
65189;SDS011;51777;53.570;9.984;2022-09-06T07:15:25;8.38;;;1.38;;
65189;SDS011;51777;53.570;9.984;2022-09-06T07:17:53;11.52;;;1.48;;
65189;SDS011;51777;53.570;9.984;2022-09-06T07:20:22;13.32;;;1.75;;
65189;SDS011;51777;53.570;9.984;2022-09-06T07:23:00;6.25;;;1.20;;
65189;SDS011;51777;53.570;9.984;2022-09-06T07:25:27;7.18;;;1.38;;
65189;SDS011;51777;53.570;9.984;2022-09-06T07:28:02;5.32;;;1.20;;
65189;SDS011;51777;53.570;9.984;2022-09-06T07:30:33;6.38;;;1.20;;
65189;SDS011;51777;53.570;9.984;2022-09-06T07:33:02;5.97;;;1.20;;
65189;SDS011;51777;53.570;9.984;2022-09-06T07:35:29;7.32;;;1.17;;
65189;SDS011;51777;53.570;9.984;2022-09-06T07:37:55;12.50;;;1.27;;
65189;SDS011;51777;53.570;9.984;2022-09-06T07:40:23;5.10;;;1.40;;
65189;SDS011;51777;53.570;9.984;2022-09-06T07:42:49;4.10;;;1.20;;
65189;SDS011;51777;53.570;9.984;2022-09-06T07:45:14;5.05;;;1.30;;
65189;SDS011;51777;53.570;9.984;2022-09-06T07:47:40;2.90;;;1.10;;
65189;SDS011;51777;53.570;9.984;2022-09-06T07:50:06;7.95;;;1.23;;
65189;SDS011;51777;53.570;9.984;2022-09-06T07:52:32;2.67;;;1.50;;
65189;SDS011;51777;53.570;9.984;2022-09-06T07:54:58;5.90;;;1.23;;
65189;SDS011;51777;53.570;9.984;2022-09-06T07:57:23;3.50;;;1.30;;
65189;SDS011;51777;53.570;9.984;2022-09-06T07:59:48;9.20;;;1.80;;
65189;SDS011;51777;53.570;9.984;2022-09-06T08:02:14;16.90;;;1.50;;
65189;SDS011;51777;53.570;9.984;2022-09-06T08:04:41;5.88;;;1.60;;
65189;SDS011;51777;53.570;9.984;2022-09-06T08:07:07;17.02;;;1.30;;
65189;SDS011;51777;53.570;9.984;2022-09-06T08:09:33;6.53;;;1.25;;
65189;SDS011;51777;53.570;9.984;2022-09-06T08:11:59;3.05;;;1.27;;
65189;SDS011;51777;53.570;9.984;2022-09-06T08:14:30;3.17;;;1.00;;
65189;SDS011;51777;53.570;9.984;2022-09-06T08:16:56;4.78;;;1.25;;
65189;SDS011;51777;53.570;9.984;2022-09-06T08:19:23;9.50;;;1.35;;
65189;SDS011;51777;53.570;9.984;2022-09-06T08:21:52;7.32;;;1.58;;
65189;SDS011;51777;53.570;9.984;2022-09-06T08:24:19;10.88;;;1.52;;
65189;SDS011;51777;53.570;9.984;2022-09-06T08:26:44;8.63;;;1.60;;
65189;SDS011;51777;53.570;9.984;2022-09-06T08:29:11;6.68;;;1.30;;
65189;SDS011;51777;53.570;9.984;2022-09-06T08:31:42;6.53;;;1.70;;
65189;SDS011;51777;53.570;9.984;2022-09-06T08:34:09;11.52;;;1.63;;
65189;SDS011;51777;53.570;9.984;2022-09-06T08:36:39;6.65;;;1.58;;
65189;SDS011;51777;53.570;9.984;2022-09-06T08:39:05;13.18;;;1.70;;
65189;SDS011;51777;53.570;9.984;2022-09-06T08:41:55;10.13;;;1.58;;
65189;SDS011;51777;53.570;9.984;2022-09-06T08:47:09;6.80;;;1.33;;
65189;SDS011;51777;53.570;9.984;2022-09-06T08:49:43;18.65;;;2.30;;
65189;SDS011;51777;53.570;9.984;2022-09-06T09:00:19;5.45;;;1.45;;
65189;SDS011;51777;53.570;9.984;2022-09-06T09:02:46;6.85;;;1.40;;
65189;SDS011;51777;53.570;9.984;2022-09-06T09:05:27;9.70;;;1.65;;
65189;SDS011;51777;53.570;9.984;2022-09-06T09:08:11;4.00;;;1.30;;
65189;SDS011;51777;53.570;9.984;2022-09-06T09:13:58;6.82;;;1.60;;
65189;SDS011;51777;53.570;9.984;2022-09-06T09:16:24;10.52;;;1.67;;
65189;SDS011;51777;53.570;9.984;2022-09-06T09:18:54;8.00;;;1.50;;
65189;SDS011;51777;53.570;9.984;2022-09-06T09:21:25;13.93;;;1.67;;
65189;SDS011;51777;53.570;9.984;2022-09-06T09:23:54;10.35;;;1.73;;
65189;SDS011;51777;53.570;9.984;2022-09-06T09:26:23;5.60;;;1.60;;
65189;SDS011;51777;53.570;9.984;2022-09-06T09:34:26;10.40;;;1.83;;
65189;SDS011;51777;53.570;9.984;2022-09-06T09:37:09;3.17;;;1.70;;
65189;SDS011;51777;53.570;9.984;2022-09-06T09:39:49;8.43;;;1.70;;
65189;SDS011;51777;53.570;9.984;2022-09-06T09:42:26;12.07;;;1.92;;
65189;SDS011;51777;53.570;9.984;2022-09-06T09:44:54;7.00;;;1.50;;
65189;SDS011;51777;53.570;9.984;2022-09-06T09:47:27;8.98;;;1.70;;
65189;SDS011;51777;53.570;9.984;2022-09-06T09:49:56;8.10;;;2.15;;
65189;SDS011;51777;53.570;9.984;2022-09-06T09:52:26;4.70;;;1.70;;
65189;SDS011;51777;53.570;9.984;2022-09-06T09:55:04;5.68;;;1.70;;
65189;SDS011;51777;53.570;9.984;2022-09-06T09:57:41;10.02;;;1.83;;
65189;SDS011;51777;53.570;9.984;2022-09-06T10:00:10;5.43;;;1.70;;
65189;SDS011;51777;53.570;9.984;2022-09-06T10:02:38;8.50;;;1.88;;
65189;SDS011;51777;53.570;9.984;2022-09-06T10:07:41;7.20;;;1.60;;
65189;SDS011;51777;53.570;9.984;2022-09-06T10:10:13;15.85;;;1.67;;
65189;SDS011;51777;53.570;9.984;2022-09-06T10:12:45;8.85;;;1.50;;
65189;SDS011;51777;53.570;9.984;2022-09-06T10:15:11;7.32;;;1.70;;
65189;SDS011;51777;53.570;9.984;2022-09-06T10:17:56;2.88;;;1.50;;
65189;SDS011;51777;53.570;9.984;2022-09-06T10:20:25;5.53;;;1.63;;
65189;SDS011;51777;53.570;9.984;2022-09-06T10:25:45;5.18;;;1.75;;
65189;SDS011;51777;53.570;9.984;2022-09-06T10:28:30;3.80;;;1.52;;
65189;SDS011;51777;53.570;9.984;2022-09-06T10:36:33;8.73;;;1.70;;
65189;SDS011;51777;53.570;9.984;2022-09-06T10:53:35;7.88;;;1.58;;
65189;SDS011;51777;53.570;9.984;2022-09-06T10:56:03;6.40;;;1.67;;
65189;SDS011;51777;53.570;9.984;2022-09-06T10:58:35;12.93;;;1.90;;
65189;SDS011;51777;53.570;9.984;2022-09-06T11:01:06;9.60;;;1.85;;
65189;SDS011;51777;53.570;9.984;2022-09-06T11:03:43;10.45;;;2.00;;
65189;SDS011;51777;53.570;9.984;2022-09-06T11:06:10;11.63;;;1.63;;
65189;SDS011;51777;53.570;9.984;2022-09-06T11:08:39;9.55;;;1.70;;
65189;SDS011;51777;53.570;9.984;2022-09-06T11:11:21;5.15;;;1.67;;
65189;SDS011;51777;53.570;9.984;2022-09-06T11:14:05;4.68;;;2.20;;
65189;SDS011;51777;53.570;9.984;2022-09-06T11:16:35;11.90;;;1.80;;
65189;SDS011;51777;53.570;9.984;2022-09-06T11:19:10;6.80;;;1.88;;
65189;SDS011;51777;53.570;9.984;2022-09-06T11:27:39;5.28;;;1.58;;
65189;SDS011;51777;53.570;9.984;2022-09-06T11:30:11;5.13;;;1.40;;
65189;SDS011;51777;53.570;9.984;2022-09-06T11:32:40;6.45;;;1.50;;
65189;SDS011;51777;53.570;9.984;2022-09-06T11:35:20;4.13;;;1.50;;
65189;SDS011;51777;53.570;9.984;2022-09-06T11:37:57;12.90;;;1.80;;
65189;SDS011;51777;53.570;9.984;2022-09-06T11:40:25;14.90;;;1.73;;
65189;SDS011;51777;53.570;9.984;2022-09-06T11:45:20;10.88;;;1.75;;
65189;SDS011;51777;53.570;9.984;2022-09-06T11:51:04;5.35;;;1.80;;
65189;SDS011;51777;53.570;9.984;2022-09-06T11:59:40;9.18;;;1.45;;
65189;SDS011;51777;53.570;9.984;2022-09-06T12:07:29;6.38;;;1.70;;
65189;SDS011;51777;53.570;9.984;2022-09-06T12:09:56;12.48;;;1.77;;
65189;SDS011;51777;53.570;9.984;2022-09-06T12:12:44;6.05;;;1.60;;
65189;SDS011;51777;53.570;9.984;2022-09-06T12:15:28;2.97;;;1.52;;
65189;SDS011;51777;53.570;9.984;2022-09-06T12:17:59;10.33;;;1.60;;
65189;SDS011;51777;53.570;9.984;2022-09-06T12:23:57;6.03;;;1.60;;
65189;SDS011;51777;53.570;9.984;2022-09-06T12:26:01;7.18;;;1.60;;
65189;SDS011;51777;53.570;9.984;2022-09-06T12:31:24;7.10;;;1.80;;
65189;SDS011;51777;53.570;9.984;2022-09-06T12:34:12;8.25;;;1.70;;
65189;SDS011;51777;53.570;9.984;2022-09-06T12:37:03;14.80;;;1.90;;
65189;SDS011;51777;53.570;9.984;2022-09-06T12:39:31;2.92;;;1.52;;
65189;SDS011;51777;53.570;9.984;2022-09-06T12:42:05;5.15;;;1.52;;
65189;SDS011;51777;53.570;9.984;2022-09-06T12:47:13;3.25;;;2.20;;
65189;SDS011;51777;53.570;9.984;2022-09-06T12:49:47;4.93;;;1.55;;
65189;SDS011;51777;53.570;9.984;2022-09-06T12:55:26;8.80;;;1.80;;
65189;SDS011;51777;53.570;9.984;2022-09-06T12:57:53;4.75;;;1.50;;
65189;SDS011;51777;53.570;9.984;2022-09-06T13:00:21;5.60;;;1.58;;
65189;SDS011;51777;53.570;9.984;2022-09-06T13:05:23;12.18;;;1.60;;
65189;SDS011;51777;53.570;9.984;2022-09-06T13:07:51;12.18;;;2.05;;
65189;SDS011;51777;53.570;9.984;2022-09-06T13:10:20;15.52;;;1.55;;
65189;SDS011;51777;53.570;9.984;2022-09-06T13:12:49;7.93;;;1.75;;
65189;SDS011;51777;53.570;9.984;2022-09-06T13:15:26;18.20;;;1.67;;
65189;SDS011;51777;53.570;9.984;2022-09-06T13:18:17;6.85;;;1.75;;
65189;SDS011;51777;53.570;9.984;2022-09-06T13:20:57;2.50;;;1.50;;
65189;SDS011;51777;53.570;9.984;2022-09-06T13:23:24;8.95;;;1.83;;
65189;SDS011;51777;53.570;9.984;2022-09-06T13:25:50;14.30;;;2.03;;
65189;SDS011;51777;53.570;9.984;2022-09-06T13:28:28;7.60;;;2.15;;
65189;SDS011;51777;53.570;9.984;2022-09-06T13:33:42;17.00;;;2.00;;
65189;SDS011;51777;53.570;9.984;2022-09-06T13:41:06;3.28;;;1.45;;
65189;SDS011;51777;53.570;9.984;2022-09-06T13:44:15;5.38;;;1.67;;
65189;SDS011;51777;53.570;9.984;2022-09-06T13:46:51;11.77;;;1.70;;
65189;SDS011;51777;53.570;9.984;2022-09-06T13:49:20;5.28;;;1.73;;
65189;SDS011;51777;53.570;9.984;2022-09-06T13:51:47;5.30;;;1.52;;
65189;SDS011;51777;53.570;9.984;2022-09-06T13:54:14;5.57;;;1.80;;
65189;SDS011;51777;53.570;9.984;2022-09-06T13:56:40;3.33;;;1.63;;
65189;SDS011;51777;53.570;9.984;2022-09-06T13:59:08;5.50;;;1.60;;
65189;SDS011;51777;53.570;9.984;2022-09-06T14:01:35;7.53;;;1.50;;
65189;SDS011;51777;53.570;9.984;2022-09-06T14:04:02;6.95;;;1.58;;
65189;SDS011;51777;53.570;9.984;2022-09-06T14:06:28;5.90;;;1.77;;
65189;SDS011;51777;53.570;9.984;2022-09-06T14:08:53;4.25;;;1.70;;
65189;SDS011;51777;53.570;9.984;2022-09-06T14:11:19;9.88;;;1.65;;
65189;SDS011;51777;53.570;9.984;2022-09-06T14:13:45;8.40;;;1.60;;
65189;SDS011;51777;53.570;9.984;2022-09-06T14:16:11;8.43;;;1.60;;
65189;SDS011;51777;53.570;9.984;2022-09-06T14:18:37;10.35;;;1.80;;
65189;SDS011;51777;53.570;9.984;2022-09-06T14:21:02;4.72;;;1.80;;
65189;SDS011;51777;53.570;9.984;2022-09-06T14:23:29;7.68;;;1.90;;
65189;SDS011;51777;53.570;9.984;2022-09-06T14:25:55;8.57;;;2.03;;
65189;SDS011;51777;53.570;9.984;2022-09-06T14:28:22;9.60;;;2.00;;
65189;SDS011;51777;53.570;9.984;2022-09-06T14:30:48;3.50;;;2.03;;
65189;SDS011;51777;53.570;9.984;2022-09-06T14:33:13;4.55;;;2.25;;
65189;SDS011;51777;53.570;9.984;2022-09-06T14:35:39;6.10;;;1.75;;
65189;SDS011;51777;53.570;9.984;2022-09-06T14:38:04;3.95;;;2.30;;
65189;SDS011;51777;53.570;9.984;2022-09-06T14:40:33;6.03;;;1.95;;
65189;SDS011;51777;53.570;9.984;2022-09-06T14:42:59;6.10;;;2.08;;
65189;SDS011;51777;53.570;9.984;2022-09-06T14:45:25;7.47;;;1.70;;
65189;SDS011;51777;53.570;9.984;2022-09-06T14:47:50;6.90;;;2.17;;
65189;SDS011;51777;53.570;9.984;2022-09-06T14:50:16;10.43;;;1.95;;
65189;SDS011;51777;53.570;9.984;2022-09-06T14:52:42;8.00;;;1.70;;
65189;SDS011;51777;53.570;9.984;2022-09-06T14:55:07;7.97;;;1.90;;
65189;SDS011;51777;53.570;9.984;2022-09-06T14:57:33;3.28;;;1.80;;
65189;SDS011;51777;53.570;9.984;2022-09-06T14:59:58;11.15;;;1.83;;
65189;SDS011;51777;53.570;9.984;2022-09-06T15:02:24;10.88;;;1.83;;
65189;SDS011;51777;53.570;9.984;2022-09-06T15:04:52;10.70;;;2.10;;
65189;SDS011;51777;53.570;9.984;2022-09-06T15:07:19;8.68;;;1.85;;
65189;SDS011;51777;53.570;9.984;2022-09-06T15:09:45;7.13;;;2.00;;
65189;SDS011;51777;53.570;9.984;2022-09-06T15:12:11;5.30;;;1.80;;
65189;SDS011;51777;53.570;9.984;2022-09-06T15:14:36;7.32;;;2.38;;
65189;SDS011;51777;53.570;9.984;2022-09-06T15:17:02;5.75;;;1.98;;
65189;SDS011;51777;53.570;9.984;2022-09-06T15:19:30;12.93;;;2.45;;
65189;SDS011;51777;53.570;9.984;2022-09-06T15:21:57;6.68;;;1.80;;
65189;SDS011;51777;53.570;9.984;2022-09-06T15:24:23;5.20;;;1.50;;
65189;SDS011;51777;53.570;9.984;2022-09-06T15:26:49;6.45;;;1.88;;
65189;SDS011;51777;53.570;9.984;2022-09-06T15:29:14;7.22;;;1.70;;
65189;SDS011;51777;53.570;9.984;2022-09-06T15:31:40;8.88;;;2.00;;
65189;SDS011;51777;53.570;9.984;2022-09-06T15:34:07;10.43;;;2.10;;
65189;SDS011;51777;53.570;9.984;2022-09-06T15:36:34;8.93;;;1.90;;
65189;SDS011;51777;53.570;9.984;2022-09-06T15:39:01;3.95;;;1.80;;
65189;SDS011;51777;53.570;9.984;2022-09-06T15:41:29;6.32;;;2.00;;
65189;SDS011;51777;53.570;9.984;2022-09-06T15:44:00;9.95;;;1.90;;
65189;SDS011;51777;53.570;9.984;2022-09-06T15:49:09;6.85;;;1.83;;
65189;SDS011;51777;53.570;9.984;2022-09-06T15:51:37;12.38;;;2.10;;
65189;SDS011;51777;53.570;9.984;2022-09-06T15:54:04;3.30;;;1.38;;
65189;SDS011;51777;53.570;9.984;2022-09-06T15:56:31;5.93;;;1.60;;
65189;SDS011;51777;53.570;9.984;2022-09-06T15:58:57;8.60;;;1.58;;
65189;SDS011;51777;53.570;9.984;2022-09-06T16:01:23;10.00;;;2.08;;
65189;SDS011;51777;53.570;9.984;2022-09-06T16:06:21;8.13;;;1.63;;
65189;SDS011;51777;53.570;9.984;2022-09-06T16:08:49;8.75;;;1.70;;
65189;SDS011;51777;53.570;9.984;2022-09-06T16:11:19;4.68;;;1.38;;
65189;SDS011;51777;53.570;9.984;2022-09-06T16:13:45;6.38;;;1.63;;
65189;SDS011;51777;53.570;9.984;2022-09-06T16:16:11;10.98;;;1.58;;
65189;SDS011;51777;53.570;9.984;2022-09-06T16:18:39;7.68;;;1.60;;
65189;SDS011;51777;53.570;9.984;2022-09-06T16:21:11;15.43;;;1.60;;
65189;SDS011;51777;53.570;9.984;2022-09-06T16:23:39;9.90;;;1.60;;
65189;SDS011;51777;53.570;9.984;2022-09-06T16:26:06;10.18;;;1.80;;
65189;SDS011;51777;53.570;9.984;2022-09-06T16:28:35;8.68;;;1.73;;
65189;SDS011;51777;53.570;9.984;2022-09-06T16:31:06;5.00;;;1.40;;
65189;SDS011;51777;53.570;9.984;2022-09-06T16:33:33;8.65;;;1.48;;
65189;SDS011;51777;53.570;9.984;2022-09-06T16:36:00;11.77;;;1.50;;
65189;SDS011;51777;53.570;9.984;2022-09-06T16:38:28;12.45;;;1.38;;
65189;SDS011;51777;53.570;9.984;2022-09-06T16:41:00;10.82;;;1.85;;
65189;SDS011;51777;53.570;9.984;2022-09-06T16:43:32;3.08;;;1.20;;
65189;SDS011;51777;53.570;9.984;2022-09-06T16:45:59;2.33;;;1.25;;
65189;SDS011;51777;53.570;9.984;2022-09-06T16:48:26;10.65;;;1.30;;
65189;SDS011;51777;53.570;9.984;2022-09-06T16:50:52;7.18;;;1.30;;
65189;SDS011;51777;53.570;9.984;2022-09-06T16:53:18;12.18;;;1.50;;
65189;SDS011;51777;53.570;9.984;2022-09-06T16:55:46;5.32;;;1.45;;
65189;SDS011;51777;53.570;9.984;2022-09-06T16:58:11;5.45;;;1.40;;
65189;SDS011;51777;53.570;9.984;2022-09-06T17:00:41;2.88;;;1.45;;
65189;SDS011;51777;53.570;9.984;2022-09-06T17:03:09;5.13;;;1.83;;
65189;SDS011;51777;53.570;9.984;2022-09-06T17:05:35;4.55;;;2.03;;
65189;SDS011;51777;53.570;9.984;2022-09-06T17:08:01;13.70;;;1.60;;